Time;durP1;ratioP1;P1;durP2;ratioP2;P2;SDS_P1;SDS_P2;PMS_P1;PMS_P2;Temp;Humidity;BMP_temperature;BMP_pressure;BME280_temperature;BME280_humidity;BME280_pressure;Samples;Min_cycle;Max_cycle;Signal;HPM_P1;HPM_P2
2022/04/25 00:00:46;;;;;;;;;23.00;20.00;;;;;;;;5035954;28;45442;-72
2022/04/25 00:03:11;;;;;;;;;16.33;15.67;;;;;;;;5036328;28;45491;-72
2022/04/25 00:05:36;;;;;;;;;19.67;18.33;;;;;;;;5036273;28;45556;-72
2022/04/25 00:08:02;;;;;;;;;21.33;21.00;;;;;;;;5035960;28;46546;-74
2022/04/25 00:10:27;;;;;;;;;21.00;18.00;;;;;;;;5035819;28;45308;-71
2022/04/25 00:12:52;;;;;;;;;19.67;18.33;;;;;;;;5036058;28;45306;-71
2022/04/25 00:15:17;;;;;;;;;22.00;18.67;;;;;;;;5036109;28;45349;-71
2022/04/25 00:17:43;;;;;;;;;21.00;16.33;;;;;;;;5035747;28;46121;-71
2022/04/25 00:20:08;;;;;;;;;21.00;18.67;;;;;;;;5035841;28;45404;-71
2022/04/25 00:22:34;;;;;;;;;15.00;14.00;;;;;;;;5035603;28;45352;-71
2022/04/25 00:25:00;;;;;;;;;19.67;19.33;;;;;;;;5036082;28;45543;-71
2022/04/25 00:27:27;;;;;;;;;19.67;16.33;;;;;;;;5031594;28;45608;-71
2022/04/25 00:29:52;;;;;;;;;29.67;26.00;;;;;;;;5035583;28;45509;-71
2022/04/25 00:32:17;;;;;;;;;16.33;15.33;;;;;;;;5035474;28;45981;-69
2022/04/25 00:34:43;;;;;;;;;20.33;18.33;;;;;;;;5036023;28;45461;-71
2022/04/25 00:37:08;;;;;;;;;20.00;17.33;;;;;;;;5035376;28;46486;-71
2022/04/25 00:39:33;;;;;;;;;22.00;17.00;;;;;;;;5035526;28;45368;-70
2022/04/25 00:41:58;;;;;;;;;27.33;18.33;;;;;;;;5035740;28;45164;-71
2022/04/25 00:44:24;;;;;;;;;18.67;18.67;;;;;;;;5035525;28;45358;-70
2022/04/25 00:46:51;;;;;;;;;22.33;20.00;;;;;;;;5035120;28;45484;-71
2022/04/25 00:49:17;;;;;;;;;18.50;17.50;;;;;;;;5035363;28;45469;-71
2022/04/25 00:51:42;;;;;;;;;22.67;19.67;;;;;;;;5017351;28;45346;-71
2022/04/25 00:54:08;;;;;;;;;27.00;21.67;;;;;;;;5035742;28;45589;-71
2022/04/25 00:56:35;;;;;;;;;19.33;17.00;;;;;;;;5034923;28;46254;-71
2022/04/25 00:59:00;;;;;;;;;20.67;18.33;;;;;;;;5038514;28;45338;-71
2022/04/25 01:01:25;;;;;;;;;19.33;15.00;;;;;;;;5038819;28;45539;-70
2022/04/25 01:03:51;;;;;;;;;25.00;22.33;;;;;;;;5039159;28;45454;-70
2022/04/25 01:06:16;;;;;;;;;23.67;17.33;;;;;;;;5038766;28;45344;-71
2022/04/25 01:08:42;;;;;;;;;20.67;18.67;;;;;;;;5038587;28;45364;-71
2022/04/25 01:11:07;;;;;;;;;21.00;17.33;;;;;;;;5038684;28;45498;-71
2022/04/25 01:13:33;;;;;;;;;23.67;20.33;;;;;;;;5039074;28;45324;-71
2022/04/25 01:15:58;;;;;;;;;24.33;21.00;;;;;;;;5038166;28;45365;-71
2022/04/25 01:18:23;;;;;;;;;17.67;17.67;;;;;;;;5038541;28;45444;-69
2022/04/25 01:20:52;;;;;;;;;25.00;19.33;;;;;;;;5038531;28;45356;-70
2022/04/25 01:28:51;;;;;;;;;25.00;20.00;;;;;;;;5038278;28;45364;-71
2022/04/25 01:31:16;;;;;;;;;18.00;16.67;;;;;;;;5038222;28;45424;-71
2022/04/25 01:33:42;;;;;;;;;20.00;18.00;;;;;;;;5020418;28;45593;-71
2022/04/25 01:36:07;;;;;;;;;17.33;16.33;;;;;;;;5038276;28;46159;-69
2022/04/25 01:38:33;;;;;;;;;21.00;19.00;;;;;;;;5038304;28;45463;-71
2022/04/25 01:40:58;;;;;;;;;19.00;18.00;;;;;;;;5038364;28;45460;-71
2022/04/25 01:43:24;;;;;;;;;22.00;16.33;;;;;;;;5038547;28;45353;-70
2022/04/25 01:45:49;;;;;;;;;22.00;19.00;;;;;;;;5037999;28;46425;-70
2022/04/25 01:48:14;;;;;;;;;21.33;17.33;;;;;;;;5038158;28;45345;-71
2022/04/25 01:50:39;;;;;;;;;20.67;18.00;;;;;;;;5038013;28;45627;-72
2022/04/25 01:53:05;;;;;;;;;16.67;16.67;;;;;;;;5038349;28;45426;-71
2022/04/25 01:55:30;;;;;;;;;19.67;17.67;;;;;;;;5037289;28;45517;-71
2022/04/25 01:57:55;;;;;;;;;25.00;18.67;;;;;;;;5037973;28;45325;-70
2022/04/25 02:00:21;;;;;;;;;22.00;16.00;;;;;;;;5038096;28;45369;-71
2022/04/25 02:02:46;;;;;;;;;23.00;20.00;;;;;;;;5037884;28;45548;-70
2022/04/25 02:05:11;;;;;;;;;19.67;16.00;;;;;;;;5037951;28;46703;-70
2022/04/25 02:07:37;;;;;;;;;17.33;17.00;;;;;;;;5037736;28;45417;-71
2022/04/25 02:10:02;;;;;;;;;21.00;18.00;;;;;;;;5037595;28;45701;-71
2022/04/25 02:12:27;;;;;;;;;19.67;15.33;;;;;;;;5038148;28;45461;-71
2022/04/25 02:14:53;;;;;;;;;16.33;15.00;;;;;;;;5036712;28;45385;-71
2022/04/25 02:17:18;;;;;;;;;22.33;19.33;;;;;;;;5037507;28;45429;-71
2022/04/25 02:19:44;;;;;;;;;25.33;16.33;;;;;;;;5037728;28;45339;-71
2022/04/25 02:22:10;;;;;;;;;25.00;21.00;;;;;;;;5037921;28;45397;-71
2022/04/25 02:24:35;;;;;;;;;17.67;17.00;;;;;;;;5037349;28;46450;-71
2022/04/25 02:27:03;;;;;;;;;20.00;18.33;;;;;;;;5037311;28;45450;-71
2022/04/25 02:29:29;;;;;;;;;21.67;18.67;;;;;;;;5037844;28;45348;-71
2022/04/25 02:31:54;;;;;;;;;27.00;20.67;;;;;;;;5037309;28;45338;-71
2022/04/25 02:34:20;;;;;;;;;24.00;19.33;;;;;;;;5019248;28;47187;-71
2022/04/25 02:36:45;;;;;;;;;20.33;19.67;;;;;;;;5037563;28;45402;-71
2022/04/25 02:39:10;;;;;;;;;24.33;21.33;;;;;;;;5033239;28;45471;-71
2022/04/25 02:41:36;;;;;;;;;21.33;18.00;;;;;;;;5037592;28;45319;-71
2022/04/25 02:44:01;;;;;;;;;20.33;20.00;;;;;;;;5037112;28;46567;-71
2022/04/25 02:46:26;;;;;;;;;28.67;23.33;;;;;;;;5037261;28;45250;-71
2022/04/25 02:48:52;;;;;;;;;22.33;21.33;;;;;;;;5036999;28;45307;-71
2022/04/25 02:51:17;;;;;;;;;21.67;19.00;;;;;;;;5037040;28;45352;-71
2022/04/25 02:53:43;;;;;;;;;26.00;22.33;;;;;;;;5037207;28;45702;-71
2022/04/25 02:56:08;;;;;;;;;22.33;19.00;;;;;;;;5036820;28;45654;-71
2022/04/25 02:58:34;;;;;;;;;20.33;19.00;;;;;;;;5037037;28;45345;-71
2022/04/25 03:01:00;;;;;;;;;26.00;19.33;;;;;;;;5037458;28;45524;-71
2022/04/25 03:03:25;;;;;;;;;18.67;17.33;;;;;;;;5036545;28;46080;-71
2022/04/25 03:05:51;;;;;;;;;18.33;15.00;;;;;;;;5036929;28;45258;-71
2022/04/25 03:08:18;;;;;;;;;18.67;18.33;;;;;;;;5038705;28;45493;-71
2022/04/25 03:10:45;;;;;;;;;20.67;19.33;;;;;;;;5020298;28;45427;-71
2022/04/25 03:13:11;;;;;;;;;27.00;17.33;;;;;;;;5018452;28;46007;-72
2022/04/25 03:15:39;;;;;;;;;19.00;16.00;;;;;;;;5018382;28;45482;-71
2022/04/25 03:18:05;;;;;;;;;15.00;13.67;;;;;;;;5018608;28;45641;-71
2022/04/25 03:20:31;;;;;;;;;23.00;20.33;;;;;;;;5017783;28;45374;-71
2022/04/25 03:22:57;;;;;;;;;16.33;16.33;;;;;;;;5017914;28;46592;-71
2022/04/25 03:25:22;;;;;;;;;21.67;19.00;;;;;;;;5018288;28;45359;-71
2022/04/25 03:27:48;;;;;;;;;22.00;17.00;;;;;;;;5018234;28;45299;-71
2022/04/25 03:30:13;;;;;;;;;18.33;15.33;;;;;;;;5018537;28;45410;-71
2022/04/25 03:32:42;;;;;;;;;26.67;20.00;;;;;;;;5017837;28;45587;-71
2022/04/25 03:35:07;;;;;;;;;15.00;14.33;;;;;;;;5021262;28;45390;-71
2022/04/25 03:37:35;;;;;;;;;23.00;18.00;;;;;;;;5038319;28;45287;-71
2022/04/25 03:40:00;;;;;;;;;58.00;46.00;;;;;;;;5038098;28;45397;-71
2022/04/25 03:42:26;;;;;;;;;38.33;32.00;;;;;;;;5037625;28;47365;-71
2022/04/25 03:44:51;;;;;;;;;24.33;21.00;;;;;;;;5038144;28;45338;-71
2022/04/25 03:47:16;;;;;;;;;22.00;19.67;;;;;;;;5037752;28;45199;-71
2022/04/25 03:49:42;;;;;;;;;21.67;17.33;;;;;;;;5037728;28;45294;-71
2022/04/25 03:52:07;;;;;;;;;18.67;17.00;;;;;;;;5037515;28;47473;-71
2022/04/25 03:57:16;;;;;;;;;21.33;19.00;;;;;;;;5036104;28;45415;-71
2022/04/25 03:59:42;;;;;;;;;21.33;18.33;;;;;;;;5037757;28;45291;-71
2022/04/25 04:02:07;;;;;;;;;17.33;16.00;;;;;;;;5036309;28;45428;-71
2022/04/25 04:04:32;;;;;;;;;21.67;18.00;;;;;;;;5037509;28;45280;-71
2022/04/25 04:06:58;;;;;;;;;20.00;16.33;;;;;;;;5037450;28;45313;-71
2022/04/25 04:12:07;;;;;;;;;20.00;17.00;;;;;;;;5037142;28;45373;-71
2022/04/25 04:14:32;;;;;;;;;18.33;17.33;;;;;;;;5037528;28;45215;-71
2022/04/25 04:16:58;;;;;;;;;18.00;18.00;;;;;;;;5019610;28;45332;-71
2022/04/25 04:19:24;;;;;;;;;20.67;17.67;;;;;;;;5037684;28;45428;-71
2022/04/25 04:21:49;;;;;;;;;23.00;17.67;;;;;;;;5037136;28;45433;-71
2022/04/25 04:24:14;;;;;;;;;21.33;19.00;;;;;;;;5037370;28;45383;-71
2022/04/25 04:26:40;;;;;;;;;22.67;20.00;;;;;;;;5037428;28;45345;-71
2022/04/25 04:29:05;;;;;;;;;22.00;19.00;;;;;;;;5018718;28;45315;-71
2022/04/25 04:31:30;;;;;;;;;22.67;18.00;;;;;;;;5017265;28;46173;-71
2022/04/25 04:33:55;;;;;;;;;23.00;19.00;;;;;;;;5018191;28;45326;-70
2022/04/25 04:36:22;;;;;;;;;18.33;17.00;;;;;;;;5017490;28;45447;-71
2022/04/25 04:38:47;;;;;;;;;23.67;20.00;;;;;;;;5017577;28;45310;-71
2022/04/25 04:41:13;;;;;;;;;24.33;19.33;;;;;;;;5017164;28;45449;-71
2022/04/25 04:43:38;;;;;;;;;20.33;16.00;;;;;;;;5017499;28;45319;-71
2022/04/25 04:46:04;;;;;;;;;19.00;17.33;;;;;;;;5017175;28;45329;-71
2022/04/25 04:48:29;;;;;;;;;17.67;16.67;;;;;;;;5018133;28;45490;-71
2022/04/25 04:50:58;;;;;;;;;20.00;16.67;;;;;;;;5016769;28;46361;-71
2022/04/25 04:53:23;;;;;;;;;17.33;16.67;;;;;;;;5016927;28;45455;-71
2022/04/25 04:55:49;;;;;;;;;21.33;20.33;;;;;;;;5017212;28;45299;-71
2022/04/25 04:58:14;;;;;;;;;24.67;21.67;;;;;;;;5017332;28;45511;-71
2022/04/25 05:00:39;;;;;;;;;23.33;19.00;;;;;;;;5016711;28;47364;-71
2022/04/25 05:03:05;;;;;;;;;21.33;19.67;;;;;;;;5016625;28;45467;-71
2022/04/25 05:05:30;;;;;;;;;22.00;18.67;;;;;;;;5017070;28;45330;-71
2022/04/25 05:07:55;;;;;;;;;22.67;17.67;;;;;;;;5017562;28;45355;-71
2022/04/25 05:10:21;;;;;;;;;35.00;29.00;;;;;;;;5016661;28;45617;-71
2022/04/25 05:12:47;;;;;;;;;19.33;16.33;;;;;;;;5016882;28;45447;-71
2022/04/25 05:15:13;;;;;;;;;23.33;17.00;;;;;;;;5016911;28;45389;-71
2022/04/25 05:17:40;;;;;;;;;28.00;20.00;;;;;;;;5016930;28;45307;-71
2022/04/25 05:20:06;;;;;;;;;25.33;19.00;;;;;;;;5016525;28;46404;-71
2022/04/25 05:22:31;;;;;;;;;24.33;18.67;;;;;;;;5016431;28;45251;-71
2022/04/25 05:24:58;;;;;;;;;20.67;20.67;;;;;;;;5032475;28;45339;-71
2022/04/25 05:27:23;;;;;;;;;21.67;18.67;;;;;;;;5021273;28;45483;-71
2022/04/25 05:29:48;;;;;;;;;22.00;22.00;;;;;;;;5025063;28;45461;-71
2022/04/25 05:32:13;;;;;;;;;17.67;16.33;;;;;;;;5016725;28;45516;-71
2022/04/25 05:34:39;;;;;;;;;21.00;20.00;;;;;;;;5016362;28;45359;-71
2022/04/25 05:37:04;;;;;;;;;25.00;23.33;;;;;;;;5016724;28;45326;-71
2022/04/25 05:39:30;;;;;;;;;17.67;15.67;;;;;;;;5016406;28;46200;-71
2022/04/25 05:41:55;;;;;;;;;23.00;19.67;;;;;;;;5016306;28;45387;-71
2022/04/25 05:44:20;;;;;;;;;25.33;20.33;;;;;;;;5020397;28;45735;-70
2022/04/25 05:46:45;;;;;;;;;25.33;21.00;;;;;;;;5020190;28;45587;-70
2022/04/25 05:52:00;;;;;;;;;31.33;20.33;;;;;;;;5035489;28;45422;-72
2022/04/25 05:54:26;;;;;;;;;26.00;23.00;;;;;;;;5039661;28;45259;-73
2022/04/25 05:56:52;;;;;;;;;25.00;21.00;;;;;;;;5039491;28;45334;-72
2022/04/25 05:59:17;;;;;;;;;21.33;20.00;;;;;;;;5039289;28;46292;-72
2022/04/25 06:01:42;;;;;;;;;19.00;18.00;;;;;;;;5039425;28;45416;-67
2022/04/25 06:04:08;;;;;;;;;23.33;18.00;;;;;;;;5039476;28;45252;-71
2022/04/25 06:06:33;;;;;;;;;25.67;19.33;;;;;;;;5023693;28;45370;-72
2022/04/25 06:08:58;;;;;;;;;25.33;20.67;;;;;;;;5024532;28;45716;-72
2022/04/25 06:11:23;;;;;;;;;22.33;19.33;;;;;;;;5039078;28;45427;-72
2022/04/25 06:13:50;;;;;;;;;17.67;17.00;;;;;;;;5039475;28;45293;-73
2022/04/25 06:16:15;;;;;;;;;22.00;18.67;;;;;;;;5034677;28;46067;-72
2022/04/25 06:18:41;;;;;;;;;23.00;22.00;;;;;;;;5019480;28;45394;-72
2022/04/25 06:21:06;;;;;;;;;21.33;19.67;;;;;;;;5019502;28;45352;-72
2022/04/25 06:23:32;;;;;;;;;19.33;16.67;;;;;;;;5019091;28;45425;-72
2022/04/25 06:25:57;;;;;;;;;26.00;20.33;;;;;;;;5027024;28;45500;-71
2022/04/25 06:28:24;;;;;;;;;20.33;18.33;;;;;;;;5038977;28;46747;-71
2022/04/25 06:30:50;;;;;;;;;26.33;22.00;;;;;;;;5038833;28;45334;-74
2022/04/25 06:33:15;;;;;;;;;36.67;32.67;;;;;;;;5039003;28;45326;-71
2022/04/25 06:35:40;;;;;;;;;22.67;19.33;;;;;;;;5029779;28;45572;-72
2022/04/25 06:38:05;;;;;;;;;27.33;21.00;;;;;;;;5019025;28;46372;-72
2022/04/25 06:40:31;;;;;;;;;23.67;19.33;;;;;;;;5023770;28;45306;-73
2022/04/25 06:42:56;;;;;;;;;19.67;16.33;;;;;;;;5036099;28;45277;-72
2022/04/25 06:45:21;;;;;;;;;20.33;15.00;;;;;;;;5038573;28;45368;-71
2022/04/25 06:47:47;;;;;;;;;17.67;16.67;;;;;;;;5036643;28;45526;-73
2022/04/25 06:50:12;;;;;;;;;19.00;19.00;;;;;;;;5038440;28;45335;-72
2022/04/25 06:52:37;;;;;;;;;20.00;20.00;;;;;;;;5027775;28;45601;-74
2022/04/25 06:55:06;;;;;;;;;17.67;14.00;;;;;;;;5017571;28;45230;-74
2022/04/25 06:57:33;;;;;;;;;17.00;15.67;;;;;;;;5028607;28;46610;-73
2022/04/25 06:59:58;;;;;;;;;21.00;21.00;;;;;;;;5038091;28;45421;-73
2022/04/25 07:02:24;;;;;;;;;19.33;16.00;;;;;;;;5018684;28;45362;-72
2022/04/25 07:04:49;;;;;;;;;21.67;17.67;;;;;;;;5020407;28;45528;-73
2022/04/25 07:07:15;;;;;;;;;21.00;17.00;;;;;;;;5037106;28;45335;-75
2022/04/25 07:09:40;;;;;;;;;21.67;19.33;;;;;;;;5016183;28;45879;-75
2022/04/25 07:12:06;;;;;;;;;18.00;17.00;;;;;;;;5018168;28;45312;-73
2022/04/25 07:14:33;;;;;;;;;15.33;13.33;;;;;;;;5018202;28;45319;-72
2022/04/25 07:16:59;;;;;;;;;17.67;14.00;;;;;;;;5017957;28;45646;-74
2022/04/25 07:19:25;;;;;;;;;21.67;17.33;;;;;;;;5017898;28;45398;-72
2022/04/25 07:30:02;;;;;;;;;17.33;15.67;;;;;;;;5049736;28;45284;-73
2022/04/25 07:32:28;;;;;;;;;17.67;16.00;;;;;;;;5016985;28;45391;-73
2022/04/25 07:34:53;;;;;;;;;17.67;16.00;;;;;;;;5017754;28;45366;-73
2022/04/25 07:37:22;;;;;;;;;22.00;16.67;;;;;;;;5017881;28;46370;-73
2022/04/25 07:39:48;;;;;;;;;19.00;17.67;;;;;;;;5017663;28;45410;-72
2022/04/25 07:42:15;;;;;;;;;17.33;16.00;;;;;;;;5017952;28;45387;-73
2022/04/25 07:44:40;;;;;;;;;11.33;7.33;;;;;;;;5017960;28;45387;-74
2022/04/25 07:47:06;;;;;;;;;18.67;17.67;;;;;;;;5034642;28;45411;-73
2022/04/25 07:49:33;;;;;;;;;17.00;15.00;;;;;;;;5037134;28;45330;-73
2022/04/25 07:51:59;;;;;;;;;17.33;13.00;;;;;;;;5037278;28;45576;-74
2022/04/25 07:54:25;;;;;;;;;15.33;15.33;;;;;;;;5037806;28;45325;-73
2022/04/25 07:56:51;;;;;;;;;23.00;18.33;;;;;;;;5037285;28;46432;-74
2022/04/25 07:59:16;;;;;;;;;17.33;15.00;;;;;;;;5036347;28;45395;-73
2022/04/25 08:01:42;;;;;;;;;18.67;16.33;;;;;;;;5037195;28;45531;-74
2022/04/25 08:04:07;;;;;;;;;20.33;16.67;;;;;;;;5037433;28;45406;-73
2022/04/25 08:06:33;;;;;;;;;17.00;15.33;;;;;;;;5036998;28;46245;-74
2022/04/25 08:08:58;;;;;;;;;20.00;15.00;;;;;;;;5037228;28;45350;-73
2022/04/25 08:11:23;;;;;;;;;17.00;14.00;;;;;;;;5037179;28;45371;-73
2022/04/25 08:19:17;;;;;;;;;17.00;14.67;;;;;;;;5035622;28;45633;-73
2022/04/25 08:21:43;;;;;;;;;17.67;14.67;;;;;;;;5035354;28;45796;-74
2022/04/25 08:24:08;;;;;;;;;17.67;17.00;;;;;;;;5035967;28;45551;-74
2022/04/25 08:26:33;;;;;;;;;15.33;14.33;;;;;;;;5035525;28;46278;-75
2022/04/25 08:29:01;;;;;;;;;16.67;13.33;;;;;;;;5035501;28;45674;-75
2022/04/25 08:31:27;;;;;;;;;16.33;13.00;;;;;;;;5028244;28;45293;-76
2022/04/25 08:33:53;;;;;;;;;12.33;12.33;;;;;;;;5025228;28;45783;-75
2022/04/25 08:36:18;;;;;;;;;14.00;10.33;;;;;;;;5022977;28;45358;-75
2022/04/25 08:38:44;;;;;;;;;17.33;12.00;;;;;;;;5017956;28;45534;-75
2022/04/25 08:41:16;;;;;;;;;12.67;10.00;;;;;;;;5017037;28;45480;-76
2022/04/25 08:43:41;;;;;;;;;15.67;10.67;;;;;;;;5017458;28;45515;-74
2022/04/25 08:46:10;;;;;;;;;16.00;14.00;;;;;;;;5017789;28;46291;-76
2022/04/25 08:48:39;;;;;;;;;13.67;11.67;;;;;;;;5046340;28;45490;-75
2022/04/25 08:51:04;;;;;;;;;12.00;11.33;;;;;;;;5036597;28;45349;-76
2022/04/25 08:53:31;;;;;;;;;11.67;11.67;;;;;;;;5035306;28;45458;-75
2022/04/25 08:55:56;;;;;;;;;18.67;13.67;;;;;;;;5036040;28;46198;-75
2022/04/25 08:58:22;;;;;;;;;13.33;12.67;;;;;;;;5035656;28;45412;-74
2022/04/25 09:00:47;;;;;;;;;14.67;10.00;;;;;;;;5035748;28;45634;-73
2022/04/25 09:03:14;;;;;;;;;17.67;14.00;;;;;;;;5036361;28;45445;-74
2022/04/25 09:05:39;;;;;;;;;20.33;15.33;;;;;;;;5034240;28;46110;-74
2022/04/25 09:08:04;;;;;;;;;22.00;17.00;;;;;;;;5035744;28;45437;-74
2022/04/25 09:10:30;;;;;;;;;15.33;13.00;;;;;;;;5035586;28;45318;-73
2022/04/25 09:12:56;;;;;;;;;16.00;13.00;;;;;;;;5036223;28;45507;-74
2022/04/25 09:15:22;;;;;;;;;9.33;8.33;;;;;;;;5035509;28;46102;-74
2022/04/25 09:17:47;;;;;;;;;15.00;13.00;;;;;;;;5035735;28;45396;-73
2022/04/25 09:20:13;;;;;;;;;10.67;10.00;;;;;;;;5039488;28;45337;-72
2022/04/25 09:22:42;;;;;;;;;16.00;14.00;;;;;;;;5039516;28;45466;-72
2022/04/25 09:25:11;;;;;;;;;15.67;13.33;;;;;;;;5039418;28;46488;-72
2022/04/25 09:27:37;;;;;;;;;19.00;17.67;;;;;;;;5039323;28;45476;-71
2022/04/25 09:30:13;;;;;;;;;14.00;13.67;;;;;;;;5044782;28;45400;-71
2022/04/25 09:32:39;;;;;;;;;16.67;14.00;;;;;;;;5032353;28;45575;-71
2022/04/25 09:35:23;;;;;;;;;12.67;11.67;;;;;;;;5039012;28;46063;-72
2022/04/25 09:37:49;;;;;;;;;17.33;13.33;;;;;;;;5039395;28;45460;-72
2022/04/25 09:40:24;;;;;;;;;12.67;12.67;;;;;;;;5036552;28;45418;-72
2022/04/25 09:43:03;;;;;;;;;11.33;11.33;;;;;;;;5019745;28;45391;-72
2022/04/25 09:45:28;;;;;;;;;12.00;12.00;;;;;;;;5023863;28;46031;-72
2022/04/25 09:47:54;;;;;;;;;11.00;11.00;;;;;;;;5026067;28;45606;-72
2022/04/25 09:50:19;;;;;;;;;12.00;12.00;;;;;;;;5039384;28;45464;-73
2022/04/25 09:52:51;;;;;;;;;13.00;13.00;;;;;;;;5039447;28;45473;-75
2022/04/25 09:55:17;;;;;;;;;10.67;10.67;;;;;;;;5032861;28;46583;-74
2022/04/25 09:57:42;;;;;;;;;10.67;10.00;;;;;;;;5030490;28;45485;-74
2022/04/25 10:00:08;;;;;;;;;12.33;12.33;;;;;;;;5038328;28;45426;-74
2022/04/25 10:02:37;;;;;;;;;18.00;17.67;;;;;;;;5036315;28;45518;-74
2022/04/25 10:05:18;;;;;;;;;12.33;12.33;;;;;;;;5033218;28;45460;-74
2022/04/25 10:07:43;;;;;;;;;12.67;11.00;;;;;;;;5038767;28;45239;-75
2022/04/25 10:10:10;;;;;;;;;14.33;12.67;;;;;;;;5038805;28;45444;-75
2022/04/25 10:12:36;;;;;;;;;13.33;12.33;;;;;;;;5039160;28;45473;-74
2022/04/25 10:15:02;;;;;;;;;25.00;20.00;;;;;;;;5037925;28;47110;-74
2022/04/25 10:17:27;;;;;;;;;57.50;47.00;;;;;;;;5039859;28;45428;-75
2022/04/25 10:19:53;;;;;;;;;35.33;32.67;;;;;;;;5059100;28;45410;-75
2022/04/25 10:22:20;;;;;;;;;45.33;39.00;;;;;;;;5058166;28;45485;-73
2022/04/25 10:24:46;;;;;;;;;22.33;19.00;;;;;;;;5018598;28;46147;-74
2022/04/25 10:27:14;;;;;;;;;18.33;15.67;;;;;;;;5017469;28;45375;-76
2022/04/25 10:29:43;;;;;;;;;15.00;12.67;;;;;;;;5018685;28;45489;-75
2022/04/25 10:32:10;;;;;;;;;14.00;12.67;;;;;;;;5018918;28;45535;-75
2022/04/25 10:34:45;;;;;;;;;13.33;10.67;;;;;;;;5029676;28;45424;-74
2022/04/25 10:37:29;;;;;;;;;12.00;10.33;;;;;;;;5038277;28;45372;-73
2022/04/25 10:39:54;;;;;;;;;10.00;10.00;;;;;;;;5057655;28;45458;-74
2022/04/25 10:45:03;;;;;;;;;7.00;7.00;;;;;;;;5058651;28;46182;-74
2022/04/25 10:47:29;;;;;;;;;9.33;9.33;;;;;;;;5058310;28;45451;-75
2022/04/25 10:49:56;;;;;;;;;12.67;11.67;;;;;;;;5042906;28;45351;-73
2022/04/25 10:52:43;;;;;;;;;11.33;8.67;;;;;;;;5038337;28;45412;-74
2022/04/25 10:55:20;;;;;;;;;8.67;8.67;;;;;;;;5036632;28;46698;-73
2022/04/25 10:58:04;;;;;;;;;10.33;10.33;;;;;;;;5018224;28;45398;-74
2022/04/25 11:00:48;;;;;;;;;7.50;7.50;;;;;;;;5018253;28;45382;-74
2022/04/25 11:03:17;;;;;;;;;13.67;12.67;;;;;;;;5035631;28;45428;-76
2022/04/25 11:05:48;;;;;;;;;11.33;9.33;;;;;;;;5037978;28;45463;-77
2022/04/25 11:08:20;;;;;;;;;6.33;6.33;;;;;;;;5037931;28;45429;-77
2022/04/25 11:10:51;;;;;;;;;13.33;10.33;;;;;;;;5038022;28;45444;-75
2022/04/25 11:13:18;;;;;;;;;13.00;11.00;;;;;;;;5038260;28;45370;-76
2022/04/25 11:15:45;;;;;;;;;10.67;10.67;;;;;;;;5037857;28;45448;-76
2022/04/25 11:18:28;;;;;;;;;12.67;8.33;;;;;;;;5037820;28;45374;-77
2022/04/25 11:20:57;;;;;;;;;9.33;8.67;;;;;;;;5037865;28;45466;-76
2022/04/25 11:23:26;;;;;;;;;8.33;8.00;;;;;;;;5038064;28;45402;-74
2022/04/25 11:25:53;;;;;;;;;7.67;7.67;;;;;;;;5032616;28;46619;-74
2022/04/25 11:28:18;;;;;;;;;13.00;10.00;;;;;;;;5045590;28;45397;-75
2022/04/25 11:30:44;;;;;;;;;10.67;9.67;;;;;;;;5037470;28;45734;-73
2022/04/25 11:33:12;;;;;;;;;11.33;10.00;;;;;;;;5037730;28;45350;-73
2022/04/25 11:35:39;;;;;;;;;7.33;7.00;;;;;;;;5036964;28;46445;-74
2022/04/25 11:38:04;;;;;;;;;12.67;9.67;;;;;;;;5037034;28;45554;-74
2022/04/25 11:40:30;;;;;;;;;9.33;7.33;;;;;;;;5037557;28;45492;-74
2022/04/25 11:42:56;;;;;;;;;11.00;10.33;;;;;;;;5037148;28;45472;-74
2022/04/25 11:45:21;;;;;;;;;11.67;10.00;;;;;;;;5046466;28;46545;-73
2022/04/25 11:47:46;;;;;;;;;10.67;9.67;;;;;;;;5037312;28;45789;-73
2022/04/25 11:50:12;;;;;;;;;7.00;7.00;;;;;;;;5037469;28;45491;-72
2022/04/25 11:52:54;;;;;;;;;11.00;8.67;;;;;;;;5036677;28;45485;-73
2022/04/25 11:55:31;;;;;;;;;10.00;10.00;;;;;;;;5036912;28;47115;-73
2022/04/25 11:57:57;;;;;;;;;11.67;10.67;;;;;;;;5036900;28;45420;-73
2022/04/25 12:00:22;;;;;;;;;13.67;11.00;;;;;;;;5036726;28;45380;-73
2022/04/25 12:02:48;;;;;;;;;13.67;12.67;;;;;;;;5037146;28;45419;-74
2022/04/25 12:05:13;;;;;;;;;12.33;12.33;;;;;;;;5036316;28;46691;-73
2022/04/25 12:15:34;;;;;;;;;17.33;12.33;;;;;;;;5036712;28;45435;-74
2022/04/25 12:15:54;;;;;;;;;18.00;16.00;;;;;;;;5036071;28;45759;-75
2022/04/25 12:18:19;;;;;;;;;16.00;15.00;;;;;;;;5036748;28;45542;-76
2022/04/25 12:20:45;;;;;;;;;17.00;16.67;;;;;;;;5040009;28;45502;-76
2022/04/25 12:23:19;;;;;;;;;24.00;21.33;;;;;;;;5037250;28;45281;-75
2022/04/25 12:25:44;;;;;;;;;22.67;19.00;;;;;;;;5036328;28;46261;-75
2022/04/25 12:28:12;;;;;;;;;21.33;19.00;;;;;;;;5036636;28;45264;-74
2022/04/25 12:30:43;;;;;;;;;12.67;9.33;;;;;;;;5037103;28;45329;-76
2022/04/25 12:33:09;;;;;;;;;20.67;13.33;;;;;;;;5036960;28;45428;-74
2022/04/25 12:35:35;;;;;;;;;12.33;8.67;;;;;;;;5036783;28;45387;-74
2022/04/25 12:38:01;;;;;;;;;13.33;10.67;;;;;;;;5036482;28;45449;-75
2022/04/25 12:40:26;;;;;;;;;13.00;10.67;;;;;;;;5035765;28;45592;-74
2022/04/25 12:42:54;;;;;;;;;13.00;13.00;;;;;;;;5036770;28;45520;-75
2022/04/25 12:45:19;;;;;;;;;12.67;12.67;;;;;;;;5036491;28;46748;-73
2022/04/25 12:47:45;;;;;;;;;14.67;14.67;;;;;;;;5036472;28;45380;-74
2022/04/25 12:50:11;;;;;;;;;18.67;17.67;;;;;;;;5036770;28;45377;-74
2022/04/25 12:52:49;;;;;;;;;16.67;14.00;;;;;;;;5036414;28;45350;-74
2022/04/25 12:55:14;;;;;;;;;15.33;12.33;;;;;;;;5039458;28;47528;-72
2022/04/25 12:57:49;;;;;;;;;16.33;15.67;;;;;;;;5040065;28;45767;-73
2022/04/25 13:00:15;;;;;;;;;13.00;11.00;;;;;;;;5040171;28;45471;-73
2022/04/25 13:02:41;;;;;;;;;13.00;13.00;;;;;;;;5039679;28;45380;-75
2022/04/25 13:05:13;;;;;;;;;14.33;14.00;;;;;;;;5039525;28;46440;-77
2022/04/25 13:07:39;;;;;;;;;14.00;14.00;;;;;;;;5039764;28;45485;-77
2022/04/25 13:10:08;;;;;;;;;12.33;12.33;;;;;;;;5040064;28;45476;-76
2022/04/25 13:12:34;;;;;;;;;15.00;15.00;;;;;;;;5039975;28;45489;-76
2022/04/25 13:14:59;;;;;;;;;16.67;15.00;;;;;;;;5039131;28;45642;-73
2022/04/25 13:17:25;;;;;;;;;14.00;12.00;;;;;;;;5039780;28;45342;-74
2022/04/25 13:19:51;;;;;;;;;12.67;12.00;;;;;;;;5038801;28;45409;-74
2022/04/25 13:22:16;;;;;;;;;12.00;9.33;;;;;;;;5046909;28;45417;-75
2022/04/25 13:24:43;;;;;;;;;13.00;9.67;;;;;;;;5035944;28;45432;-75
2022/04/25 13:27:09;;;;;;;;;12.67;8.33;;;;;;;;5033102;28;45548;-75
2022/04/25 13:29:34;;;;;;;;;13.00;13.00;;;;;;;;5020852;28;45355;-74
2022/04/25 13:32:00;;;;;;;;;8.67;8.67;;;;;;;;5033559;28;45402;-73
2022/04/25 13:34:25;;;;;;;;;16.67;16.67;;;;;;;;5036003;28;45984;-74
2022/04/25 13:36:51;;;;;;;;;19.00;16.33;;;;;;;;5036885;28;45464;-74
2022/04/25 13:39:16;;;;;;;;;24.67;17.67;;;;;;;;5036465;28;45404;-74
2022/04/25 13:41:41;;;;;;;;;23.67;19.67;;;;;;;;5023787;28;45276;-73
2022/04/25 13:44:07;;;;;;;;;22.67;21.67;;;;;;;;5019350;28;46609;-73
2022/04/25 13:46:33;;;;;;;;;21.67;19.67;;;;;;;;5029476;28;45417;-73
2022/04/25 13:48:58;;;;;;;;;19.00;17.33;;;;;;;;5057447;28;45446;-72
2022/04/25 13:51:24;;;;;;;;;23.00;21.33;;;;;;;;5048213;28;45380;-73
2022/04/25 13:53:49;;;;;;;;;22.67;20.00;;;;;;;;5059165;28;45661;-73
2022/04/25 13:56:14;;;;;;;;;42.67;36.67;;;;;;;;5041252;28;45472;-71
2022/04/25 13:58:40;;;;;;;;;25.33;22.00;;;;;;;;5038713;28;45522;-72
2022/04/25 14:01:05;;;;;;;;;19.33;19.00;;;;;;;;5038965;28;45309;-72
2022/04/25 14:03:31;;;;;;;;;24.00;22.67;;;;;;;;5054891;28;45428;-71
2022/04/25 14:05:56;;;;;;;;;34.00;28.00;;;;;;;;5056082;28;45386;-74
2022/04/25 14:08:22;;;;;;;;;27.00;26.00;;;;;;;;5038991;28;45294;-74
2022/04/25 14:10:48;;;;;;;;;19.67;18.33;;;;;;;;5038869;28;45509;-73
2022/04/25 14:13:14;;;;;;;;;17.67;16.67;;;;;;;;5038770;28;46268;-72
2022/04/25 14:15:40;;;;;;;;;28.67;23.00;;;;;;;;5038394;28;45767;-72
2022/04/25 14:18:06;;;;;;;;;19.00;19.00;;;;;;;;5051784;28;45490;-73
2022/04/25 14:20:31;;;;;;;;;23.00;22.33;;;;;;;;5051940;28;45440;-73
2022/04/25 14:23:00;;;;;;;;;25.00;22.00;;;;;;;;5037545;28;45299;-74
2022/04/25 14:25:26;;;;;;;;;26.33;21.67;;;;;;;;5038239;28;45507;-74
2022/04/25 14:27:52;;;;;;;;;19.00;19.00;;;;;;;;5049610;28;45468;-74
2022/04/25 14:30:17;;;;;;;;;28.00;23.67;;;;;;;;5039872;28;45513;-75
2022/04/25 14:32:42;;;;;;;;;23.33;23.33;;;;;;;;5055794;28;45400;-73
2022/04/25 14:35:07;;;;;;;;;20.00;16.67;;;;;;;;5038191;28;45451;-73
2022/04/25 14:37:33;;;;;;;;;26.33;22.67;;;;;;;;5038646;28;45378;-72
2022/04/25 14:39:58;;;;;;;;;29.00;25.33;;;;;;;;5037918;28;45417;-75
2022/04/25 14:42:23;;;;;;;;;20.33;20.00;;;;;;;;5037950;28;45630;-76
2022/04/25 14:44:48;;;;;;;;;20.00;18.00;;;;;;;;5038080;28;45596;-76
2022/04/25 14:47:14;;;;;;;;;31.00;27.00;;;;;;;;5037550;28;45427;-73
2022/04/25 14:55:07;;;;;;;;;19.33;17.33;;;;;;;;5036803;28;45408;-76